Time;durP1;ratioP1;P1;durP2;ratioP2;P2;SDS_P1;SDS_P2;PMS_P1;PMS_P2;Temp;Humidity;BMP_temperature;BMP_pressure;BME280_temperature;BME280_humidity;BME280_pressure;Samples;Min_cycle;Max_cycle;Signal;HPM_P1;HPM_P2
2020/12/11 00:02:24;;;;;;;85.05;31.85;;;;;;;-0.92;81.50;98190.41;125515;1096;65210;-87
2020/12/11 00:04:50;;;;;;;79.53;32.70;;;;;;;-0.90;81.65;98188.56;125262;1095;65236;-83
2020/12/11 00:07:17;;;;;;;81.17;33.57;;;;;;;-0.89;82.22;98188.53;125595;1095;65150;-83
2020/12/11 00:09:43;;;;;;;90.40;35.63;;;;;;;-0.85;82.12;98191.86;125547;1096;65265;-86
2020/12/11 00:12:12;;;;;;;81.47;34.40;;;;;;;-0.87;82.34;98193.70;125370;1096;65182;-85
2020/12/11 00:14:38;;;;;;;76.37;32.67;;;;;;;-0.88;82.27;98192.85;125581;1095;65153;-84
2020/12/11 00:17:04;;;;;;;73.80;33.80;;;;;;;-0.82;82.59;98195.23;125499;1095;65252;-86
2020/12/11 00:19:31;;;;;;;70.47;32.98;;;;;;;-0.83;82.48;98196.15;125496;1095;65137;-88
2020/12/11 00:21:57;;;;;;;81.93;35.27;;;;;;;-0.84;81.48;98193.56;125559;1095;65182;-83
2020/12/11 00:24:24;;;;;;;78.13;35.03;;;;;;;-0.87;82.28;98186.69;125535;1095;65248;-86
2020/12/11 00:26:50;;;;;;;73.53;33.97;;;;;;;-0.81;81.71;98188.22;125542;1095;65146;-83
2020/12/11 00:29:16;;;;;;;82.20;33.40;;;;;;;-0.74;81.77;98187.05;125548;1095;65240;-83
2020/12/11 00:31:42;;;;;;;85.60;35.57;;;;;;;-0.74;81.74;98192.30;125426;1095;65268;-83
2020/12/11 00:34:09;;;;;;;82.10;33.27;;;;;;;-0.74;81.46;98188.83;125559;1095;65159;-83
2020/12/11 00:36:35;;;;;;;84.23;34.10;;;;;;;-0.74;81.95;98186.20;125497;1095;65620;-86
2020/12/11 00:39:03;;;;;;;78.93;34.03;;;;;;;-0.74;82.58;98181.81;125553;1095;65169;-83
2020/12/11 00:41:29;;;;;;;68.97;31.95;;;;;;;-0.70;81.77;98182.52;125546;1095;65220;-84
2020/12/11 00:43:55;;;;;;;87.30;36.63;;;;;;;-0.66;82.44;98187.58;125532;1095;65303;-83
2020/12/11 00:46:25;;;;;;;90.13;35.77;;;;;;;-0.62;81.87;98193.57;125288;1096;65195;-84
2020/12/11 00:48:52;;;;;;;84.17;35.67;;;;;;;-0.66;81.52;98197.22;125546;1095;65169;-83
2020/12/11 00:51:20;;;;;;;83.43;33.83;;;;;;;-0.67;81.68;98195.52;125607;1095;65159;-84
2020/12/11 00:53:47;;;;;;;76.03;33.37;;;;;;;-0.66;82.16;98192.83;125331;1097;65346;-84
2020/12/11 00:56:15;;;;;;;85.80;34.83;;;;;;;-0.62;82.24;98193.57;125521;1095;65156;-85
2020/12/11 00:58:41;;;;;;;83.17;37.07;;;;;;;-0.60;81.60;98187.34;125546;1095;65102;-85
2020/12/11 01:01:07;;;;;;;85.53;35.47;;;;;;;-0.57;82.13;98184.60;125527;1096;65160;-86
2020/12/11 01:03:34;;;;;;;84.10;35.78;;;;;;;-0.53;82.52;98185.31;125492;1095;65203;-88
2020/12/11 01:06:00;;;;;;;86.77;33.07;;;;;;;-0.52;81.57;98180.92;125520;1095;65211;-83
2020/12/11 01:08:27;;;;;;;88.60;36.03;;;;;;;-0.48;81.60;98191.23;125578;1095;65355;-87
2020/12/11 01:10:53;;;;;;;82.00;34.57;;;;;;;-0.44;82.44;98186.72;125572;1095;65089;-85
2020/12/11 01:13:19;;;;;;;87.43;34.90;;;;;;;-0.39;82.29;98192.60;125513;1095;65144;-83
2020/12/11 01:15:46;;;;;;;89.55;37.05;;;;;;;-0.34;81.87;98191.50;125524;1096;65210;-88
2020/12/11 01:18:12;;;;;;;83.53;34.63;;;;;;;-0.28;81.93;98191.24;125294;1096;65229;-83
2020/12/11 01:20:39;;;;;;;89.20;34.93;;;;;;;-0.24;82.03;98189.36;125319;1095;65160;-84
2020/12/11 01:23:05;;;;;;;86.90;35.07;;;;;;;-0.18;82.66;98186.47;125550;1095;65220;-83
2020/12/11 01:25:32;;;;;;;104.77;39.30;;;;;;;-0.15;82.58;98193.34;125317;1096;65086;-85
2020/12/11 01:27:58;;;;;;;86.90;36.27;;;;;;;-0.14;81.78;98195.05;125546;1095;65508;-87
2020/12/11 01:30:24;;;;;;;86.07;35.87;;;;;;;-0.13;82.03;98191.50;125535;1096;65086;-84
2020/12/11 01:32:51;;;;;;;90.70;35.88;;;;;;;-0.13;82.47;98192.35;125496;1095;65147;-84
2020/12/11 01:35:17;;;;;;;90.35;37.60;;;;;;;-0.13;82.21;98189.73;125537;1095;65610;-85
2020/12/11 01:37:43;;;;;;;94.03;38.47;;;;;;;-0.13;81.79;98181.00;125513;1095;65172;-86
2020/12/11 01:40:10;;;;;;;90.85;37.50;;;;;;;-0.14;82.32;98184.55;125559;1095;65085;-83
2020/12/11 01:42:36;;;;;;;91.00;38.30;;;;;;;-0.15;81.83;98185.47;125561;1095;65271;-86
2020/12/11 01:45:04;;;;;;;78.63;35.30;;;;;;;-0.14;82.01;98184.55;125516;1095;65188;-85
2020/12/11 01:47:31;;;;;;;86.93;37.67;;;;;;;-0.15;82.04;98185.47;125546;1095;65194;-84
2020/12/11 01:49:57;;;;;;;85.80;39.50;;;;;;;-0.19;81.98;98186.52;125489;1095;65178;-87
2020/12/11 01:52:23;;;;;;;90.65;37.40;;;;;;;-0.21;82.08;98183.96;125552;1095;65278;-84
2020/12/11 01:54:50;;;;;;;87.62;37.45;;;;;;;-0.22;81.76;98181.41;125515;1095;65144;-83
2020/12/11 01:57:23;;;;;;;86.60;35.50;;;;;;;-0.23;81.99;98179.70;125545;1095;65235;-84
2020/12/11 01:59:53;;;;;;;87.33;37.97;;;;;;;-0.25;81.52;98174.53;125508;1096;65230;-83
2020/12/11 02:02:21;;;;;;;94.50;39.50;;;;;;;-0.30;82.18;98168.62;125604;1095;65153;-84
2020/12/11 02:04:48;;;;;;;113.20;44.60;;;;;;;-0.28;81.72;98172.88;125261;1096;65277;-88
2020/12/11 02:07:15;;;;;;;106.83;41.20;;;;;;;-0.25;81.87;98176.28;125509;1095;65226;-86
2020/12/11 02:09:42;;;;;;;93.43;39.77;;;;;;;-0.28;81.90;98167.62;125517;1095;65528;-86
2020/12/11 02:12:08;;;;;;;89.87;38.00;;;;;;;-0.30;82.04;98169.48;125555;1095;66353;-84
2020/12/11 02:14:35;;;;;;;99.03;40.60;;;;;;;-0.30;81.64;98168.62;125511;1095;65175;-84
2020/12/11 02:17:03;;;;;;;90.97;38.73;;;;;;;-0.31;81.53;98170.40;125534;1095;65133;-85
2020/12/11 02:19:32;;;;;;;90.73;33.87;;;;;;;-0.33;81.82;98166.97;125533;1095;65204;-82
2020/12/11 02:22:03;;;;;;;90.63;35.40;;;;;;;-0.31;82.32;98166.92;125669;1095;65160;-84
2020/12/11 02:24:30;;;;;;;74.13;33.20;;;;;;;-0.31;81.93;98166.92;125553;1095;65143;-84
2020/12/11 02:26:57;;;;;;;81.87;35.33;;;;;;;-0.33;82.25;98161.72;125312;1095;65121;-85
2020/12/11 02:29:25;;;;;;;91.20;37.73;;;;;;;-0.30;81.68;98158.98;125472;1095;65274;-86
2020/12/11 02:31:54;;;;;;;92.80;38.55;;;;;;;-0.33;81.69;98153.00;125570;1095;65176;-85
2020/12/11 02:34:22;;;;;;;80.00;33.90;;;;;;;-0.34;81.51;98146.05;125520;1095;65138;-83
2020/12/11 02:36:49;;;;;;;86.20;36.05;;;;;;;-0.37;82.09;98147.05;125565;1097;65137;-84
2020/12/11 02:39:16;;;;;;;84.15;35.60;;;;;;;-0.45;82.00;98136.00;125482;1095;65153;-87
2020/12/11 02:41:47;;;;;;;77.30;34.83;;;;;;;-0.51;81.77;98138.03;125539;1095;65293;-85
2020/12/11 02:44:14;;;;;;;78.60;33.33;;;;;;;-0.49;81.78;98130.97;125600;1095;65169;-83
2020/12/11 02:46:40;;;;;;;78.00;32.90;;;;;;;-0.47;82.17;98131.75;125514;1095;65172;-83
2020/12/11 02:49:06;;;;;;;72.90;32.50;;;;;;;-0.51;81.14;98130.16;125279;1096;65156;-87
2020/12/11 02:51:32;;;;;;;78.47;34.07;;;;;;;-0.51;81.62;98127.55;125576;1095;65150;-84
2020/12/11 02:53:59;;;;;;;78.57;33.93;;;;;;;-0.52;81.52;98117.98;125466;1095;65227;-85
2020/12/11 02:56:25;;;;;;;77.00;32.90;;;;;;;-0.56;82.18;98127.77;125561;1095;65201;-87
2020/12/11 02:58:51;;;;;;;73.37;32.60;;;;;;;-0.62;81.75;98125.39;125519;1095;65099;-83
2020/12/11 03:01:17;;;;;;;75.47;31.77;;;;;;;-0.62;81.91;98128.02;125560;1095;65096;-85
2020/12/11 03:03:44;;;;;;;73.30;32.10;;;;;;;-0.59;82.03;98126.09;125352;1095;65249;-85
2020/12/11 03:06:10;;;;;;;67.63;32.43;;;;;;;-0.53;82.32;98126.77;125535;1095;65159;-85
2020/12/11 03:08:37;;;;;;;80.75;34.25;;;;;;;-0.55;82.36;98132.94;125550;1095;65226;-83
2020/12/11 03:11:03;;;;;;;77.27;32.77;;;;;;;-0.56;82.26;98131.23;125512;1096;65277;-86
2020/12/11 03:13:29;;;;;;;68.37;32.07;;;;;;;-0.55;82.01;98129.46;125557;1095;65173;-84
2020/12/11 03:15:55;;;;;;;75.17;33.97;;;;;;;-0.53;82.11;98126.77;125537;1095;65242;-85
2020/12/11 03:18:22;;;;;;;78.00;32.67;;;;;;;-0.53;81.83;98127.61;125309;1096;65147;-84
2020/12/11 03:20:48;;;;;;;76.03;33.80;;;;;;;-0.48;82.34;98130.05;125309;1096;65124;-90
2020/12/11 03:23:14;;;;;;;72.90;32.65;;;;;;;-0.48;81.43;98119.56;125300;1096;65230;-87
2020/12/11 03:25:41;;;;;;;74.45;33.63;;;;;;;-0.49;82.37;98121.33;125545;1095;65149;-83
2020/12/11 03:28:07;;;;;;;78.25;33.55;;;;;;;-0.45;82.11;98122.04;125535;1095;65141;-88
2020/12/11 03:30:33;;;;;;;75.70;32.30;;;;;;;-0.48;81.81;98123.03;125405;1096;65085;-83
2020/12/11 03:33:00;;;;;;;78.67;34.27;;;;;;;-0.48;82.61;98117.79;125580;1095;65235;-83
2020/12/11 03:35:26;;;;;;;83.03;34.00;;;;;;;-0.49;82.01;98110.84;125284;1095;65175;-85
2020/12/11 03:37:52;;;;;;;72.10;33.03;;;;;;;-0.44;81.50;98113.28;125302;1096;65182;-84
2020/12/11 03:40:18;;;;;;;72.97;34.13;;;;;;;-0.44;82.19;98116.75;125256;1095;65220;-85
2020/12/11 03:42:45;;;;;;;78.85;34.73;;;;;;;-0.44;81.44;98119.37;125591;1095;65599;-84
2020/12/11 03:45:11;;;;;;;86.57;35.57;;;;;;;-0.42;82.05;98122.77;125583;1095;65153;-84
2020/12/11 03:47:40;;;;;;;78.37;34.17;;;;;;;-0.41;82.33;98116.61;125405;1095;65181;-88
2020/12/11 03:50:06;;;;;;;75.73;31.83;;;;;;;-0.38;82.06;98119.11;125567;1096;65133;-83
2020/12/11 03:52:32;;;;;;;76.43;33.17;;;;;;;-0.33;82.61;98116.27;125305;1095;65331;-83
2020/12/11 03:54:59;;;;;;;74.47;33.35;;;;;;;-0.32;82.52;98120.59;125572;1095;65197;-83
2020/12/11 03:57:25;;;;;;;73.77;33.50;;;;;;;-0.34;81.29;98118.05;125522;1095;65252;-83
2020/12/11 03:59:51;;;;;;;84.27;34.70;;;;;;;-0.37;82.09;98114.72;125425;1095;65136;-84
2020/12/11 04:02:18;;;;;;;85.60;35.97;;;;;;;-0.42;81.35;98112.28;125302;1095;65332;-83
2020/12/11 04:04:44;;;;;;;73.67;32.88;;;;;;;-0.48;81.85;98109.92;125289;1095;65218;-83
2020/12/11 04:07:11;;;;;;;78.90;34.27;;;;;;;-0.49;81.42;98110.84;125505;1095;65137;-84
2020/12/11 04:09:39;;;;;;;79.73;33.73;;;;;;;-0.48;81.40;98109.92;125311;1096;65185;-83
2020/12/11 04:12:06;;;;;;;84.07;34.57;;;;;;;-0.47;81.94;98105.53;125560;1095;65272;-86
2020/12/11 04:14:32;;;;;;;83.20;34.03;;;;;;;-0.46;82.64;98105.45;125594;1096;65602;-84
2020/12/11 04:16:59;;;;;;;74.73;31.97;;;;;;;-0.39;82.11;98099.02;125544;1096;65220;-87
2020/12/11 04:19:26;;;;;;;75.57;33.70;;;;;;;-0.33;82.27;98103.16;125533;1095;65223;-83
2020/12/11 04:21:54;;;;;;;81.70;36.77;;;;;;;-0.35;82.12;98100.60;125519;1095;65136;-84
2020/12/11 04:24:22;;;;;;;79.45;35.95;;;;;;;-0.33;82.00;98100.53;125514;1095;65187;-83
2020/12/11 04:26:49;;;;;;;86.33;37.87;;;;;;;-0.35;81.68;98097.98;125331;1096;65175;-87
2020/12/11 04:29:15;;;;;;;78.17;34.73;;;;;;;-0.35;82.22;98097.13;125499;1095;65278;-86
2020/12/11 04:31:42;;;;;;;75.00;32.80;;;;;;;-0.32;81.88;98103.11;125578;1095;65130;-84
2020/12/11 04:34:08;;;;;;;79.57;32.90;;;;;;;-0.31;82.07;98096.09;125499;1095;65242;-85
2020/12/11 04:36:35;;;;;;;83.60;35.97;;;;;;;-0.29;81.69;98099.48;125314;1095;65192;-86
2020/12/11 04:39:01;;;;;;;80.12;35.05;;;;;;;-0.33;81.33;98098.75;125542;1095;65207;-82
2020/12/11 04:41:30;;;;;;;83.00;35.80;;;;;;;-0.35;81.96;98094.51;125264;1095;65358;-86
2020/12/11 04:43:57;;;;;;;77.63;33.17;;;;;;;-0.35;81.32;98090.11;125551;1095;65271;-84
2020/12/11 04:46:27;;;;;;;84.40;34.00;;;;;;;-0.31;82.44;98094.31;125507;1095;65146;-84
2020/12/11 04:48:55;;;;;;;87.67;33.37;;;;;;;-0.35;81.59;98089.26;125516;1095;65079;-86
2020/12/11 04:51:33;;;;;;;83.27;35.77;;;;;;;-0.41;81.43;98100.02;125299;1096;65249;-83
2020/12/11 04:54:01;;;;;;;83.30;34.80;;;;;;;-0.43;81.49;98101.86;125538;1095;65170;-83
2020/12/11 04:56:28;;;;;;;83.63;35.47;;;;;;;-0.39;82.44;98096.39;125590;1096;65266;-85
2020/12/11 04:58:55;;;;;;;79.65;33.95;;;;;;;-0.37;82.30;98094.58;125535;1095;65179;-85
2020/12/11 05:01:26;;;;;;;76.63;34.27;;;;;;;-0.35;81.77;98089.26;125513;1096;65127;-84
2020/12/11 05:03:54;;;;;;;81.07;34.90;;;;;;;-0.36;81.90;98090.19;125519;1095;65124;-86
2020/12/11 05:06:21;;;;;;;75.57;34.73;;;;;;;-0.38;82.30;98086.75;125587;1096;65262;-83
2020/12/11 05:08:47;;;;;;;75.33;32.37;;;;;;;-0.44;81.57;98090.52;125495;1095;65248;-89
2020/12/11 05:11:28;;;;;;;70.57;31.63;;;;;;;-0.48;82.36;98095.95;125272;1095;65163;-86
2020/12/11 05:13:54;;;;;;;84.30;36.03;;;;;;;-0.55;81.21;98088.35;125544;1095;65237;-83
2020/12/11 05:16:21;;;;;;;77.90;35.20;;;;;;;-0.59;82.00;98102.50;125523;1096;65213;-83
2020/12/11 05:19:02;;;;;;;92.50;39.23;;;;;;;-0.64;82.22;98093.97;125524;1095;65653;-85
2020/12/11 05:21:31;;;;;;;81.07;33.17;;;;;;;-0.67;82.01;98090.64;125525;1095;65217;-85
2020/12/11 05:24:00;;;;;;;76.13;34.73;;;;;;;-0.67;81.80;98095.89;125546;1095;65194;-83
2020/12/11 05:26:32;;;;;;;78.05;34.05;;;;;;;-0.65;81.82;98086.17;125544;1095;65156;-87
2020/12/11 05:28:59;;;;;;;85.97;36.67;;;;;;;-0.60;81.91;98092.93;125531;1095;65121;-84
2020/12/11 05:31:26;;;;;;;85.03;34.50;;;;;;;-0.55;81.82;98090.13;125494;1096;65182;-84
2020/12/11 05:34:10;;;;;;;76.43;34.60;;;;;;;-0.51;82.54;98086.43;125625;1095;65160;-84
2020/12/11 05:36:52;;;;;;;78.70;34.60;;;;;;;-0.44;81.97;98084.43;125578;1095;65156;-85
2020/12/11 05:39:25;;;;;;;97.20;38.70;;;;;;;-0.47;81.45;98077.52;125584;1095;65133;-88
2020/12/11 05:41:51;;;;;;;91.57;36.50;;;;;;;-0.46;81.85;98087.09;125563;1095;65163;-83
2020/12/11 05:44:26;;;;;;;92.53;38.40;;;;;;;-0.46;81.92;98084.47;125271;1096;65156;-84
2020/12/11 05:46:54;;;;;;;;;;;;;;;-0.44;81.85;98085.27;125653;1095;65131;-84
2020/12/11 05:49:26;;;;;;;78.20;33.87;;;;;;;-0.39;81.38;98082.43;125570;1095;65150;-83
2020/12/11 05:51:59;;;;;;;86.00;35.43;;;;;;;-0.38;82.26;98078.88;125587;1095;65147;-85
2020/12/11 05:54:26;;;;;;;93.87;37.23;;;;;;;-0.36;82.52;98080.55;125547;1096;65220;-86
2020/12/11 05:56:52;;;;;;;81.65;35.60;;;;;;;-0.36;81.70;98080.55;125511;1095;65233;-84
2020/12/11 05:59:20;;;;;;;75.33;32.67;;;;;;;-0.41;81.95;98077.27;125539;1095;65098;-85
2020/12/11 06:01:55;;;;;;;79.20;33.75;;;;;;;-0.46;82.37;98084.47;125276;1096;65213;-88
2020/12/11 06:04:24;;;;;;;83.33;34.67;;;;;;;-0.48;81.60;98085.47;125314;1096;65233;-83
2020/12/11 06:06:56;;;;;;;81.80;34.50;;;;;;;-0.56;81.65;98085.80;125523;1095;65329;-83
2020/12/11 06:09:34;;;;;;;84.70;36.43;;;;;;;-0.62;81.12;98083.44;125556;1095;65333;-87
2020/12/11 06:12:03;;;;;;;80.90;35.37;;;;;;;-0.66;82.36;98066.13;125560;1096;65153;-85
2020/12/11 06:14:45;;;;;;;84.65;34.80;;;;;;;-0.62;82.35;98070.33;125584;1095;65133;-85
2020/12/11 06:17:14;;;;;;;78.93;33.53;;;;;;;-0.59;82.38;98062.31;125578;1095;65246;-83
2020/12/11 06:19:44;;;;;;;91.80;37.47;;;;;;;-0.59;82.18;98072.80;125592;1095;65207;-83
2020/12/11 06:22:12;;;;;;;91.60;38.17;;;;;;;-0.60;82.63;98076.34;125589;1095;65243;-83
2020/12/11 06:24:38;;;;;;;89.93;39.03;;;;;;;-0.61;82.50;98074.65;125520;1095;65118;-85
2020/12/11 06:27:05;;;;;;;89.03;37.77;;;;;;;-0.68;81.64;98074.06;125330;1095;65226;-83
2020/12/11 06:29:40;;;;;;;89.85;38.85;;;;;;;-0.69;81.48;98066.27;125554;1095;65246;-83
2020/12/11 06:32:08;;;;;;;85.03;37.57;;;;;;;-0.69;82.21;98071.52;125517;1095;65243;-85
2020/12/11 06:34:35;;;;;;;100.07;39.73;;;;;;;-0.74;81.60;98073.47;125498;1095;65121;-88
2020/12/11 06:37:03;;;;;;;86.10;37.50;;;;;;;-0.75;81.61;98074.39;125534;1095;65179;-83
2020/12/11 06:39:41;;;;;;;88.33;37.07;;;;;;;-0.72;82.37;98066.38;125587;1095;66065;-88
2020/12/11 06:42:09;;;;;;;89.03;36.93;;;;;;;-0.69;81.79;98063.64;125575;1095;65294;-84
2020/12/11 06:44:35;;;;;;;82.37;36.20;;;;;;;-0.62;81.83;98065.09;125612;1095;65234;-84
2020/12/11 06:47:10;;;;;;;96.67;38.57;;;;;;;-0.59;81.74;98063.16;125486;1096;65156;-82
2020/12/11 06:49:57;;;;;;;;;;;;;;;-0.62;81.96;98058.06;125602;1095;65175;-85
2020/12/11 06:52:33;;;;;;;220.53;80.90;;;;;;;-0.64;82.09;98053.79;125552;1095;65272;-85
2020/12/11 06:54:59;;;;;;;251.83;113.00;;;;;;;-0.64;82.36;98052.02;125378;1096;65197;-85
2020/12/11 06:57:34;;;;;;;291.23;128.73;;;;;;;-0.60;81.54;98055.38;125264;1096;65174;-85
2020/12/11 07:00:31;;;;;;;189.40;82.03;;;;;;;-0.63;81.66;98058.14;125503;1096;65146;-87
2020/12/11 07:03:18;;;;;;;135.83;63.63;;;;;;;-0.67;81.50;98061.80;125547;1095;65147;-85
2020/12/11 07:05:45;;;;;;;119.03;51.93;;;;;;;-0.61;82.17;98067.63;125515;1095;65678;-84
2020/12/11 07:08:16;;;;;;;96.55;38.80;;;;;;;-0.58;81.89;98069.26;125578;1095;65530;-83
2020/12/11 07:10:43;;;;;;;88.75;39.10;;;;;;;-0.54;82.50;98078.71;125512;1096;65146;-85
2020/12/11 07:13:11;;;;;;;98.53;41.10;;;;;;;-0.51;81.74;98069.84;125547;1095;65300;-83
2020/12/11 07:15:38;;;;;;;110.43;42.23;;;;;;;-0.48;82.40;98064.48;125509;1095;65604;-82
2020/12/11 07:18:15;;;;;;;106.10;40.43;;;;;;;-0.46;81.87;98071.36;125531;1095;65188;-85
2020/12/11 07:20:50;;;;;;;117.80;43.70;;;;;;;-0.45;81.85;98067.80;125516;1095;65150;-83
2020/12/11 07:23:17;;;;;;;115.52;43.83;;;;;;;-0.42;81.65;98066.84;125536;1095;65220;-87
2020/12/11 07:25:49;;;;;;;122.87;43.60;;;;;;;-0.41;81.73;98061.52;125481;1095;65275;-83
2020/12/11 07:28:16;;;;;;;114.10;46.70;;;;;;;-0.37;82.43;98051.77;125551;1096;65166;-83
2020/12/11 07:30:47;;;;;;;105.43;42.93;;;;;;;-0.36;81.28;98053.45;125512;1095;65176;-83
2020/12/11 07:33:13;;;;;;;94.93;40.60;;;;;;;-0.38;81.12;98050.03;125623;1095;65265;-83
2020/12/11 07:35:48;;;;;;;97.87;40.47;;;;;;;-0.37;81.87;98049.14;125595;1095;65162;-84
2020/12/11 07:38:17;;;;;;;107.60;44.35;;;;;;;-0.38;81.52;98050.03;125287;1096;65153;-84
2020/12/11 07:40:52;;;;;;;107.87;43.40;;;;;;;-0.34;81.76;98041.12;125639;1095;65163;-85
2020/12/11 07:43:21;;;;;;;95.83;41.33;;;;;;;-0.32;82.11;98040.15;125597;1095;65147;-85
2020/12/11 07:45:48;;;;;;;96.63;41.47;;;;;;;-0.24;82.43;98042.42;125535;1095;65249;-85
2020/12/11 07:48:19;;;;;;;99.83;38.83;;;;;;;-0.17;82.20;98033.35;125689;1095;65147;-82
2020/12/11 07:50:47;;;;;;;101.57;43.70;;;;;;;-0.05;82.63;98037.20;125658;1095;65213;-84
2020/12/11 07:53:13;;;;;;;99.50;43.73;;;;;;;0.04;82.10;98039.39;125666;1095;65233;-83
2020/12/11 07:55:40;;;;;;;110.30;45.15;;;;;;;0.08;82.21;98032.23;125644;1095;65153;-87
2020/12/11 07:58:07;;;;;;;101.97;44.83;;;;;;;0.11;81.91;98035.55;125498;1096;65191;-84
2020/12/11 08:00:37;;;;;;;112.70;44.30;;;;;;;0.14;82.03;98035.43;125355;1096;65198;-84
2020/12/11 08:03:06;;;;;;;97.53;42.83;;;;;;;0.16;80.95;98025.70;125566;1095;65175;-84
2020/12/11 08:05:34;;;;;;;120.37;46.80;;;;;;;0.17;81.56;98030.02;125789;1095;65173;-84
2020/12/11 08:08:02;;;;;;;105.77;45.80;;;;;;;0.17;81.60;98019.52;125374;1096;65133;-84
2020/12/11 08:10:37;;;;;;;115.13;47.17;;;;;;;0.24;81.07;98015.67;125685;1095;65136;-86
2020/12/11 08:13:16;;;;;;;97.57;42.23;;;;;;;0.28;81.94;98013.77;125304;1095;65124;-83
2020/12/11 08:15:45;;;;;;;110.03;43.57;;;;;;;0.36;81.23;98008.15;125388;1095;65229;-83
2020/12/11 08:18:20;;;;;;;99.20;43.80;;;;;;;0.46;81.59;97998.92;125626;1095;65173;-83
2020/12/11 08:20:59;;;;;;;110.63;47.97;;;;;;;0.50;81.51;97989.95;125655;1095;65166;-83
2020/12/11 08:23:34;;;;;;;115.60;49.00;;;;;;;0.59;81.63;97991.30;125390;1095;65144;-83
2020/12/11 08:26:07;;;;;;;131.77;51.83;;;;;;;0.68;81.62;97990.83;125357;1095;65246;-85
2020/12/11 08:28:34;;;;;;;117.80;44.33;;;;;;;0.74;81.83;97996.63;125572;1095;65285;-84
2020/12/11 08:31:20;;;;;;;102.80;44.87;;;;;;;0.82;81.63;97990.99;125534;1095;65137;-84
2020/12/11 08:33:59;;;;;;;104.17;43.10;;;;;;;0.89;81.35;97991.53;125625;1095;65210;-83
2020/12/11 08:36:29;;;;;;;108.15;48.25;;;;;;;0.94;81.61;97993.01;125317;1095;65169;-83
2020/12/11 08:39:17;;;;;;;105.10;42.95;;;;;;;0.92;80.90;97997.50;125409;1095;65182;-83
2020/12/11 08:42:01;;;;;;;111.15;47.78;;;;;;;0.84;81.03;98004.08;125652;1095;65448;-83
2020/12/11 08:49:47;;;;;;;96.80;43.70;;;;;;;0.63;81.46;97998.08;125590;1095;65105;-86
2020/12/11 08:52:13;;;;;;;93.63;41.30;;;;;;;0.60;81.67;97993.84;125581;1095;65150;-84
2020/12/11 08:54:40;;;;;;;101.97;43.40;;;;;;;0.54;81.21;97991.52;125587;1095;65355;-83
2020/12/11 08:57:07;;;;;;;127.17;56.07;;;;;;;0.52;81.46;97990.75;125685;1095;65195;-83
2020/12/11 08:59:34;;;;;;;287.00;113.85;;;;;;;0.49;81.61;97996.98;125538;1095;65352;-84
2020/12/11 09:02:03;;;;;;;364.33;158.40;;;;;;;0.43;81.82;97999.90;125676;1095;65166;-83
2020/12/11 09:04:29;;;;;;;202.75;91.80;;;;;;;0.39;81.51;98000.98;125680;1095;65227;-84
2020/12/11 09:06:56;;;;;;;136.43;64.03;;;;;;;0.43;81.82;97999.05;125528;1095;65146;-83
2020/12/11 09:09:23;;;;;;;98.00;41.15;;;;;;;0.51;81.53;97999.55;125566;1095;65175;-83
2020/12/11 09:11:50;;;;;;;91.83;41.87;;;;;;;0.59;81.78;98002.66;125514;1095;65230;-83
2020/12/11 09:14:16;;;;;;;103.37;42.50;;;;;;;0.62;82.04;97991.98;125609;1095;65162;-85
2020/12/11 09:16:43;;;;;;;99.37;43.07;;;;;;;0.64;82.20;97987.52;125609;1095;65173;-83
2020/12/11 09:19:09;;;;;;;102.90;44.20;;;;;;;0.62;81.91;97994.61;125564;1096;65275;-85
2020/12/11 09:21:36;;;;;;;98.93;41.33;;;;;;;0.61;81.92;97994.69;125541;1095;65155;-84
2020/12/11 09:24:03;;;;;;;99.07;43.27;;;;;;;0.58;81.19;97985.20;125683;1095;65154;-83
2020/12/11 09:26:31;;;;;;;88.03;39.30;;;;;;;0.50;81.34;97982.06;125566;1095;65108;-84
2020/12/11 09:29:26;;;;;;;98.67;43.47;;;;;;;0.42;81.71;97971.09;125672;1095;65080;-86
2020/12/11 09:31:47;;;;;;;95.10;42.35;;;;;;;0.33;81.42;97963.67;125540;1095;65229;-83
2020/12/11 09:34:14;;;;;;;100.63;44.13;;;;;;;0.22;81.65;97966.80;125539;1095;65098;-85
2020/12/11 09:36:43;;;;;;;102.30;42.57;;;;;;;0.17;81.78;97964.38;125679;1095;65105;-83
2020/12/11 09:39:11;;;;;;;99.10;42.80;;;;;;;0.14;82.16;97953.20;125359;1095;65105;-84
2020/12/11 09:41:40;;;;;;;102.63;46.67;;;;;;;0.13;82.28;97957.59;125680;1095;65150;-83
2020/12/11 09:46:51;;;;;;;125.57;55.63;;;;;;;0.04;81.79;97947.52;125526;1095;65153;-88
2020/12/11 09:49:23;;;;;;;120.07;50.93;;;;;;;-0.01;81.64;97945.10;125598;1095;65169;-84
2020/12/11 09:52:01;;;;;;;114.50;48.70;;;;;;;-0.02;82.07;97942.55;125605;1095;65184;-83
2020/12/11 09:54:32;;;;;;;106.77;45.03;;;;;;;-0.02;82.31;97937.31;125536;1095;65203;-82
2020/12/11 09:56:59;;;;;;;104.43;44.73;;;;;;;0.15;81.92;97939.98;125690;1095;65200;-84
2020/12/11 09:59:32;;;;;;;107.83;46.23;;;;;;;0.33;81.84;97940.88;125558;1095;65242;-82
2020/12/11 10:04:25;;;;;;;118.83;50.43;;;;;;;0.71;81.76;97938.14;125709;1095;65266;-83
2020/12/11 10:06:51;;;;;;;154.83;65.10;;;;;;;0.86;81.92;97931.25;125583;1095;65102;-83
2020/12/11 10:09:18;;;;;;;132.93;58.40;;;;;;;0.99;81.68;97927.06;125321;1096;65358;-86
2020/12/11 10:11:45;;;;;;;124.40;54.37;;;;;;;1.16;81.47;97929.68;125577;1095;65124;-84
2020/12/11 10:14:29;;;;;;;103.47;47.03;;;;;;;1.34;82.01;97912.09;125654;1095;65162;-83
2020/12/11 10:16:56;;;;;;;111.17;49.57;;;;;;;1.57;82.19;97914.32;125634;1095;65252;-83
2020/12/11 10:19:25;;;;;;;109.30;49.20;;;;;;;1.75;81.89;97903.73;125613;1096;65192;-83
2020/12/11 10:21:55;;;;;;;107.87;48.43;;;;;;;1.91;81.93;97901.97;125629;1095;65259;-84
2020/12/11 10:24:22;;;;;;;121.40;49.55;;;;;;;2.07;81.73;97888.78;125560;1095;65111;-84
2020/12/11 10:26:53;;;;;;;108.60;49.57;;;;;;;2.19;81.88;97881.97;125683;1095;65242;-88
2020/12/11 10:29:22;;;;;;;112.00;50.73;;;;;;;2.29;81.51;97885.77;125564;1095;65169;-84
2020/12/11 10:31:48;;;;;;;123.80;52.45;;;;;;;2.39;81.39;97881.67;125570;1095;65178;-86
2020/12/11 10:34:16;;;;;;;119.90;51.37;;;;;;;2.53;82.03;97883.50;125464;1095;65256;-84
2020/12/11 10:36:43;;;;;;;120.10;51.00;;;;;;;2.65;81.40;97877.52;125552;1096;65211;-82
2020/12/11 10:39:10;;;;;;;113.97;48.80;;;;;;;2.77;81.88;97884.70;125358;1096;65232;-86
2020/12/11 10:41:37;;;;;;;107.07;48.00;;;;;;;2.90;81.46;97871.64;125358;1095;65204;-88
2020/12/11 10:44:03;;;;;;;113.75;51.10;;;;;;;3.06;82.16;97863.67;125635;1095;65166;-84
2020/12/11 10:46:30;;;;;;;110.90;50.43;;;;;;;3.18;81.93;97862.89;125571;1095;65249;-86
2020/12/11 10:48:57;;;;;;;115.93;54.53;;;;;;;3.31;81.67;97858.59;125545;1095;65197;-84
2020/12/11 10:51:23;;;;;;;121.90;56.53;;;;;;;3.48;82.24;97855.73;125580;1096;65220;-85
2020/12/11 10:53:50;;;;;;;124.97;53.97;;;;;;;3.65;82.05;97854.68;125213;1096;65153;-87
2020/12/11 10:56:19;;;;;;;118.13;50.67;;;;;;;3.74;81.97;97845.31;125296;1096;65262;-87
2020/12/11 10:58:47;;;;;;;107.83;47.97;;;;;;;3.82;81.11;97845.70;125713;1095;65268;-83
2020/12/11 11:01:14;;;;;;;108.43;49.73;;;;;;;3.94;81.55;97838.75;125543;1095;65217;-85
2020/12/11 11:03:41;;;;;;;102.10;47.50;;;;;;;4.05;81.31;97834.47;125683;1095;65144;-83
2020/12/11 11:06:25;;;;;;;109.10;51.33;;;;;;;4.21;81.50;97826.41;125966;1095;65168;-83
2020/12/11 11:11:41;;;;;;;107.10;48.63;;;;;;;4.50;81.96;97821.80;125492;1096;65153;-84
2020/12/11 11:17:06;;;;;;;66.93;32.53;;;;;;;4.75;80.85;97806.93;125501;1095;65278;-87
2020/12/11 11:27:28;;;;;;;27.00;14.05;;;;;;;5.34;81.14;97781.61;125543;1095;65254;-85
2020/12/11 11:29:55;;;;;;;27.50;14.17;;;;;;;5.46;80.61;97779.86;125542;1095;65121;-84
2020/12/11 11:32:21;;;;;;;31.30;15.57;;;;;;;5.54;80.91;97772.23;125545;1096;65153;-82
2020/12/11 11:34:47;;;;;;;26.75;13.93;;;;;;;5.62;80.25;97769.88;125554;1095;65213;-83
2020/12/11 11:37:14;;;;;;;27.10;15.27;;;;;;;5.73;80.28;97773.56;125544;1095;65152;-82
2020/12/11 11:39:40;;;;;;;32.90;16.10;;;;;;;5.83;80.93;97762.16;125261;1096;65249;-84
2020/12/11 11:42:07;;;;;;;26.73;13.53;;;;;;;5.90;80.49;97768.69;125502;1095;65230;-82